Карточка аэропорта UWGG

Внимание!
Информация на этой странице в стадии наполнения.
Если вы не увидели какой-то информации, или заметили неточность - пожалуйста сообщите нам!
Спасибо!
Команда RU-STAFF
Название аэропортаСтригино
Название аэропорта (англ.)Strigino
Превышение256 ft. (78 m.)
Координаты56°13.8', 43°47.202'
Высота перехода5000 ft
Эшелон переходаQNH>=1013hPa:FL060; QNH<1013hPa:FL070; QNH<977hPa:FL080
Коды ответчика2120-2147
Зона ОрВДМосква РПИ (UUWV)
Данные METARUWGG 310730Z 21008MPS 9999 DRSN OVC019 M02/M06 Q1003 R18L/450045 TEMPO 21009G15MPS
Проноз погоды (TAF)UWGG 310454Z 3106/0106 20006G12MPS 8000 -SN OVC016 TXM02/3112Z TNM04/0103Z TEMPO 3106/0104 21009G15MPS -FZDZ
NOTAMshow/hide NOTAM
AWOS   TABLE

Информация о ВПП

ВПП Длина ВПП (м.) Покрытие Курс ВПП Частота ILS
36R3000Цементобетон359110.5
36L2806Асфальтобетон359109.5
18R2806Асфальтобетон179109.9
18L3000Цементобетон179108.1

Диспетчерские позиции

Позывной Наименование органа УВД Частота
UWGG_APPНижний-Подход124.700
UWGG_GNDНижний-Руление121.800
UWGG_R_APPНижний-Круг120.800
UWGG_TWRНижний-Вышка120.400



Спутниковое изображение